Airfield :
LOGIN :

Register | Disclaimer

   EN    FR    IT 

 










Legend :    VFR   Marginal VFR   IFR   Intensive IFR   Very Intensive IFR
Visi :
Ceiling :
>= 8 km
>= 3000ft
5 to 8 km
1000 to 3000 ft
1500m to 5 km
500 to 1000 ft
800 to 1500m
200 to 500 ft
< 800m
< 200 ft
Symbols :   Thunderstorms  Fog  Heavy snow  Heavy precipitations  Wind > 20 kt
SIGMETs :     Misc.  Thunderstorms  Icing  Turbulence  Mountain Waves  Volcanic Ashes







- Airport Elevation : -11 ft
- IATA code : AMS


EHAM - Amsterdam Schiphol

CURRENT METAR :
  • 190425Z 29015KT 9999 VCSH FEW024TCU 07/03 Q1015 TEMPO 7000 SHRA

EXPIRED METARs :
  • 190355Z 30013KT 4500 SHRA FEW022TCU SCT040 06/04 Q1015 BECMG 9999 NSW
  • 190325Z 30015KT 9999 FEW027 07/03 Q1015 TEMPO -SHRA FEW020CB
  • 190255Z 29012KT 9999 FEW027 07/03 Q1015 TEMPO -SHRA FEW020CB
  • 190225Z 30013KT 9999 FEW036 06/02 Q1015 TEMPO -SHRA FEW020CB
  • 190155Z 30010KT 9999 FEW032 06/01 Q1015 TEMPO -SHRA FEW020CB

TAF TAF EHAM
Valid from the 19 at 00:00 until the 20 at 06:00 UTC


182302Z 1900/2006 31012KT 9999 SCT022
PROB30
TEMPO 1900/1918 32018G28KT 7000 -SHRA FEW018CB BKN030
BECMG 1907/1910 31017G27KT
BECMG 1915/1918 30012KT
BECMG 1922/2001 27007KT
BECMG 2003/2006 22008KT 7000 RA SCT012 BKN020
No reported NOTAMs for that airfield.



MET'MAP, your aeronautical weather chart ! - Copyright ORBIFLY December 2007 - Disclaimer

ORBIFLY MET'MAP TEAM :

Programming & Development : Alexandra Zaïnal
Concept & Development : Baudouin d'Aumeries
Co-Development & Prog : Marc-Olivier Méhu
Technical & hardware support : Manuel Goepfert

Contact : metmap@orbifly.com




SOURCES & CREDITS :

   NOAA